Terminal Aerodrome Forecast
Issued by NWS Portland, ME

Home | Current Version | Previous Version | Text Only | Print | Product List | Glossary On
Versions: 1 2 3 4 5 6 7 8 9 10 11 12 13 14 15
000
FTUS41 KGYX 271126
TAFPWM
TAF
KPWM 271126Z 2712/2812 24007KT P6SM SCT200
     FM271700 19009KT P6SM SCT050
      TEMPO 2719/2723 5SM -TSRA BKN035CB
     FM280000 30004KT P6SM SCT050=

USA.gov is the U.S. government's official web portal to all federal, state and local government web resources and services.